KALN

St Louis Regional Airport

Alton/St Louis, Illinois, USA
METAR KALN 242050Z 17010KT 10SM OVC023 24/20 A2990
Observed Flight Rules
Sep-24 @ 20:50 UTC (43 minutes ago) Marginal Visual Flight Rules
Wind Visibility Clouds
170° at 10 knots 10 miles
  • Overcast at 2,300' AGL
Temperatures Readings
Current 24°C / 75°F
Dewpoint 20°C / 68°F
Humidity 78%
Altimeter 29.9" Hg
Pressure 1013 hPa
Elevation 166
METAR KALN 242050Z 17010KT 10SM OVC023 24/20 A2990
Observed Flight Rules
Sep-24 @ 20:50 UTC
(43 minutes ago)
MVFR
Wind Visibility
170° at 10 knots 10 miles
Clouds
  • Overcast at 2,300' AGL
Temperature Dewpoint
24°C / 75°F 20°C / 68°F
Humidity Altimeter Pressure
78% 29.9" Hg 1013 hPa